createdAt,value
2022-11-17T00:08:16.732Z,3.85
2022-11-17T00:19:02.557Z,3.80
2022-11-17T00:29:05.501Z,4.10
2022-11-17T00:39:08.443Z,3.65
2022-11-17T00:49:10.948Z,3.75
2022-11-17T00:59:12.506Z,3.65
2022-11-17T01:09:19.692Z,3.75
2022-11-17T01:19:21.994Z,3.50
2022-11-17T01:29:23.380Z,3.33
2022-11-17T01:39:26.290Z,3.47
2022-11-17T01:49:28.760Z,3.35
2022-11-17T01:59:39.378Z,3.08
2022-11-17T02:09:41.266Z,2.90
2022-11-17T02:19:44.181Z,2.67
2022-11-17T02:29:53.504Z,2.85
2022-11-17T02:40:10.801Z,2.90
2022-11-17T02:50:12.719Z,3.10
2022-11-17T03:00:16.649Z,2.75
2022-11-17T03:10:21.413Z,2.90
2022-11-17T03:20:26.566Z,2.80
2022-11-17T03:30:30.869Z,2.22
2022-11-17T03:40:36.241Z,2.30
2022-11-17T03:50:46.354Z,2.15
2022-11-17T04:00:51.048Z,2.20
2022-11-17T04:11:11.083Z,2.23
2022-11-17T04:21:12.546Z,2.30
2022-11-17T04:31:17.968Z,2.10
2022-11-17T04:41:39.528Z,1.83
2022-11-17T04:51:41.417Z,1.77
2022-11-17T05:01:43.135Z,1.88
2022-11-17T05:12:03.151Z,1.73
2022-11-17T05:22:24.580Z,1.70
2022-11-17T05:32:26.024Z,1.38
2022-11-17T05:42:27.470Z,1.52
2022-11-17T05:52:29.033Z,1.67
2022-11-17T06:02:51.886Z,1.45
2022-11-17T06:12:53.365Z,1.20
2022-11-17T06:22:56.602Z,1.67
2022-11-17T06:32:58.697Z,1.20
2022-11-17T06:43:12.389Z,1.20
2022-11-17T06:53:13.800Z,1.10
2022-11-17T07:03:15.185Z,1.20
2022-11-17T07:13:16.548Z,1.10
2022-11-17T07:23:17.968Z,1.20
2022-11-17T07:33:19.940Z,1.20
2022-11-17T07:43:21.423Z,0.98
2022-11-17T07:53:22.878Z,1.10
2022-11-17T08:03:24.457Z,1.33
2022-11-17T08:13:26.146Z,0.90
2022-11-17T08:23:27.601Z,0.90
2022-11-17T08:33:29.154Z,1.00
2022-11-17T08:43:30.619Z,0.70
2022-11-17T08:53:32.266Z,0.70
2022-11-17T09:03:33.713Z,0.90
2022-11-17T09:13:35.916Z,0.93
2022-11-17T09:23:37.842Z,0.80
2022-11-17T09:33:39.729Z,0.90
2022-11-17T09:43:50.965Z,0.90
2022-11-17T09:53:58.511Z,1.10
2022-11-17T10:04:01.345Z,1.00
2022-11-17T10:14:11.801Z,0.90
2022-11-17T10:24:34.864Z,0.70
2022-11-17T10:34:41.312Z,0.60
2022-11-17T10:44:44.297Z,0.80
2022-11-17T10:54:45.905Z,0.88
2022-11-17T11:04:47.321Z,0.77
2022-11-17T11:14:54.040Z,0.68
2022-11-17T11:25:04.280Z,0.70
2022-11-17T11:35:32.158Z,0.60
2022-11-17T11:45:55.513Z,0.40
2022-11-17T11:56:07.364Z,0.60
2022-11-17T12:06:40.164Z,0.47
2022-11-17T12:16:44.389Z,0.50
2022-11-17T12:26:45.847Z,0.50
2022-11-17T12:37:14.914Z,0.60
2022-11-17T12:47:21.357Z,0.30
2022-11-17T12:57:28.935Z,0.35
2022-11-17T13:07:30.534Z,0.40
2022-11-17T13:17:42.857Z,0.40
2022-11-17T13:27:47.961Z,0.38
2022-11-17T13:38:03.584Z,0.40
2022-11-17T13:48:05.084Z,0.40
2022-11-17T13:58:20.512Z,0.40
2022-11-17T14:08:27.352Z,0.40
2022-11-17T14:18:37.432Z,0.30
2022-11-17T14:28:38.902Z,0.30
2022-11-17T14:38:40.763Z,0.40
2022-11-17T14:48:42.150Z,0.32
2022-11-17T14:58:44.095Z,0.35
2022-11-17T15:08:45.545Z,0.40
2022-11-17T15:18:48.020Z,0.30
2022-11-17T15:28:49.670Z,0.47
2022-11-17T15:38:53.207Z,0.43
2022-11-17T15:48:55.497Z,0.40
2022-11-17T15:59:05.176Z,0.43
2022-11-17T16:09:07.363Z,0.30
2022-11-17T16:19:08.954Z,0.25
2022-11-17T16:29:10.402Z,0.30
2022-11-17T16:39:14.282Z,0.30
2022-11-17T16:49:18.160Z,0.30
2022-11-17T16:59:20.024Z,0.30
2022-11-17T17:09:27.642Z,0.30
2022-11-17T17:19:29.558Z,0.40
2022-11-17T17:29:30.949Z,0.30
2022-11-17T17:39:33.493Z,0.30
2022-11-17T17:49:34.856Z,0.45
2022-11-17T17:59:36.192Z,0.30
2022-11-17T18:09:37.546Z,0.30
2022-11-17T18:19:38.989Z,0.30
2022-11-17T18:29:40.336Z,0.60
2022-11-17T18:39:41.698Z,0.30
2022-11-17T18:49:43.035Z,0.70
2022-11-17T18:59:44.381Z,0.50
2022-11-17T19:09:45.817Z,0.50
2022-11-17T19:19:47.253Z,0.40
2022-11-17T19:29:48.680Z,0.43
2022-11-17T19:39:50.052Z,0.80
2022-11-17T19:49:51.519Z,0.45
2022-11-17T19:59:53.061Z,0.47
2022-11-17T20:09:54.389Z,0.40
2022-11-17T20:19:55.765Z,0.40
2022-11-17T20:29:57.223Z,0.60
2022-11-17T20:39:58.569Z,0.43
2022-11-17T20:49:59.908Z,0.30
2022-11-17T21:00:01.232Z,0.20
2022-11-17T21:10:02.623Z,0.30
2022-11-17T21:20:04.398Z,0.30
2022-11-17T21:30:06.328Z,0.40
2022-11-17T21:40:08.293Z,0.40
2022-11-17T21:50:10.213Z,0.40
2022-11-17T22:00:12.180Z,0.30
2022-11-17T22:10:13.770Z,0.28
2022-11-17T22:20:15.428Z,0.30
2022-11-17T22:30:16.866Z,0.40
2022-11-17T22:40:18.317Z,0.30
2022-11-17T22:50:19.739Z,0.30
2022-11-17T23:00:21.305Z,0.45
2022-11-17T23:10:22.672Z,0.50
2022-11-17T23:20:24.459Z,0.40
2022-11-17T23:30:25.836Z,0.50
2022-11-17T23:40:27.257Z,0.47
2022-11-17T23:50:28.626Z,0.38
